Time;durP1;ratioP1;P1;durP2;ratioP2;P2;SDS_P1;SDS_P2;PMS_P1;PMS_P2;Temp;Humidity;BMP_temperature;BMP_pressure;BME280_temperature;BME280_humidity;BME280_pressure;Samples;Min_cycle;Max_cycle;Signal;HPM_P1;HPM_P2
2021/12/02 00:02:14;;;;;;;2.30;0.93;;;;;;;5.66;100.00;95498.28;5036906;28;20049;-85
2021/12/02 00:04:43;;;;;;;1.20;0.60;;;;;;;5.73;100.00;95510.38;5039602;28;20091;-84
2021/12/02 00:07:10;;;;;;;2.30;0.60;;;;;;;5.78;100.00;95505.53;5057801;28;20185;-84
2021/12/02 00:09:37;;;;;;;1.23;0.70;;;;;;;5.80;100.00;95506.00;5039235;28;20053;-83
2021/12/02 00:12:06;;;;;;;1.48;0.60;;;;;;;5.78;100.00;95510.16;5040191;28;20064;-81
2021/12/02 00:14:53;;;;;;;1.73;0.82;;;;;;;5.80;100.00;95518.66;5057635;28;20056;-84
2021/12/02 00:17:34;;;;;;;2.35;1.05;;;;;;;5.69;100.00;95521.00;5041292;28;20056;-84
2021/12/02 00:23:26;;;;;;;2.90;1.10;;;;;;;5.68;100.00;95529.38;5057999;28;20056;-84
2021/12/02 00:25:53;;;;;;;1.67;0.98;;;;;;;5.68;100.00;95533.63;5049189;28;20060;-83
2021/12/02 00:28:20;;;;;;;1.67;1.00;;;;;;;5.61;100.00;95530.72;5042518;28;20060;-84
2021/12/02 00:30:47;;;;;;;2.00;1.10;;;;;;;5.47;100.00;95524.88;5057073;28;20141;-83
2021/12/02 00:33:16;;;;;;;1.67;1.02;;;;;;;5.62;100.00;95536.88;5055575;28;20049;-83
2021/12/02 00:35:44;;;;;;;2.25;1.35;;;;;;;5.56;100.00;95548.94;5057738;28;20136;-84
2021/12/02 00:38:11;;;;;;;3.90;1.20;;;;;;;5.51;100.00;95546.47;5055711;28;20056;-85
2021/12/02 00:40:38;;;;;;;1.85;1.20;;;;;;;5.51;100.00;95563.34;5039612;28;20053;-84
2021/12/02 00:43:05;;;;;;;2.85;1.05;;;;;;;5.47;100.00;95565.13;5056941;28;20053;-83
2021/12/02 00:45:32;;;;;;;3.08;0.90;;;;;;;5.47;100.00;95557.06;5039846;28;20521;-84
2021/12/02 00:48:00;;;;;;;0.85;0.57;;;;;;;5.37;100.00;95546.78;5040739;28;20051;-85
2021/12/02 00:50:26;;;;;;;1.65;0.88;;;;;;;5.45;100.00;95580.78;5054961;28;20048;-82
2021/12/02 00:52:55;;;;;;;2.70;1.05;;;;;;;5.47;100.00;95580.47;5052568;28;20068;-83
2021/12/02 00:55:25;;;;;;;1.90;0.90;;;;;;;5.31;100.00;95574.94;5054841;28;20049;-84
2021/12/02 00:57:53;;;;;;;2.28;0.60;;;;;;;5.22;100.00;95573.44;5041274;28;20103;-82
2021/12/02 01:00:19;;;;;;;1.80;0.63;;;;;;;5.22;100.00;95576.91;5057238;28;20060;-83
2021/12/02 01:02:48;;;;;;;3.35;0.65;;;;;;;5.02;100.00;95551.72;5053123;28;20477;-84
2021/12/02 01:05:15;;;;;;;3.28;0.60;;;;;;;4.99;100.00;95563.09;5052954;28;20099;-83
2021/12/02 01:07:42;;;;;;;2.67;0.70;;;;;;;4.97;100.00;95564.53;5037154;28;20192;-83
2021/12/02 01:10:12;;;;;;;4.30;0.75;;;;;;;4.92;100.00;95562.84;5055661;28;20064;-81
2021/12/02 01:12:39;;;;;;;2.00;0.70;;;;;;;4.88;100.00;95578.00;5054866;28;20053;-84
2021/12/02 01:15:06;;;;;;;2.70;0.73;;;;;;;4.86;100.00;95579.44;5056458;28;20126;-83
2021/12/02 01:17:33;;;;;;;6.75;0.80;;;;;;;4.79;100.00;95579.19;5041175;28;20048;-81
2021/12/02 01:20:00;;;;;;;2.53;0.70;;;;;;;4.81;100.00;95595.72;5056014;28;20183;-82
2021/12/02 01:22:32;;;;;;;5.50;0.95;;;;;;;4.58;100.00;95565.81;5056848;28;20068;-79
2021/12/02 01:24:59;;;;;;;3.15;0.70;;;;;;;4.69;100.00;95587.63;5037627;28;20106;-82
2021/12/02 01:27:25;;;;;;;4.43;1.10;;;;;;;4.69;100.00;95587.63;5057744;28;20052;-82
2021/12/02 01:29:53;;;;;;;2.80;0.55;;;;;;;4.65;100.00;95595.53;5057231;28;20103;-81
2021/12/02 01:32:21;;;;;;;5.00;0.88;;;;;;;4.53;100.00;95584.75;5057733;28;20060;-81
2021/12/02 01:34:48;;;;;;;5.97;0.98;;;;;;;4.59;100.00;95596.06;5058670;28;20054;-81
2021/12/02 01:37:15;;;;;;;6.28;1.00;;;;;;;4.48;100.00;95582.28;5059376;28;20049;-82
2021/12/02 01:39:41;;;;;;;1.27;0.50;;;;;;;4.35;100.00;95567.22;5059812;28;20106;-81
2021/12/02 01:42:22;;;;;;;6.78;0.80;;;;;;;4.38;100.00;95578.09;5060747;28;20049;-80
2021/12/02 01:44:51;;;;;;;4.72;0.50;;;;;;;4.55;100.00;95584.41;5062406;28;20068;-81
2021/12/02 01:47:22;;;;;;;6.43;0.80;;;;;;;4.55;100.00;95585.22;5046512;28;20049;-81
2021/12/02 01:49:52;;;;;;;5.70;0.70;;;;;;;4.47;100.00;95604.00;5060325;28;20534;-81
2021/12/02 01:52:24;;;;;;;3.72;0.80;;;;;;;4.46;100.00;95592.53;5054603;28;20105;-82
2021/12/02 01:55:01;;;;;;;4.65;1.08;;;;;;;4.36;100.00;95580.28;5072504;28;20048;-82
2021/12/02 01:57:30;;;;;;;3.92;0.65;;;;;;;4.37;100.00;95599.81;5055913;28;20048;-82
2021/12/02 02:00:20;;;;;;;4.43;0.77;;;;;;;4.36;100.00;95599.03;5055446;28;20055;-81
2021/12/02 02:02:47;;;;;;;6.82;0.90;;;;;;;4.35;100.00;95607.41;5075671;28;20057;-81
2021/12/02 02:05:16;;;;;;;7.15;0.82;;;;;;;4.26;100.00;95594.06;5076235;28;20052;-82
2021/12/02 02:08:01;;;;;;;3.70;0.80;;;;;;;4.19;100.00;95598.34;5056026;28;20127;-82
2021/12/02 02:10:30;;;;;;;3.65;0.77;;;;;;;4.20;100.00;95616.00;5076647;28;20049;-81
2021/12/02 02:13:01;;;;;;;2.85;0.70;;;;;;;4.10;100.00;95573.53;5079981;28;20193;-80
2021/12/02 02:15:27;;;;;;;4.22;0.85;;;;;;;4.23;100.00;95604.66;5062022;28;20064;-84
2021/12/02 02:20:23;;;;;;;3.63;0.70;;;;;;;4.20;100.00;95600.72;5080031;28;20052;-81
2021/12/02 02:22:50;;;;;;;5.10;0.85;;;;;;;4.18;100.00;95596.81;5084575;28;20052;-82
2021/12/02 02:25:18;;;;;;;6.57;0.65;;;;;;;4.28;100.00;95605.22;5067845;28;20052;-83
2021/12/02 02:27:45;;;;;;;7.82;1.10;;;;;;;4.25;100.00;95615.81;5066669;28;20070;-84
2021/12/02 02:30:14;;;;;;;5.25;0.63;;;;;;;4.23;100.00;95599.28;5066412;28;20048;-82
2021/12/02 02:32:41;;;;;;;8.43;0.68;;;;;;;4.12;100.00;95595.41;5084031;28;20087;-82
2021/12/02 02:35:08;;;;;;;2.83;0.60;;;;;;;4.15;100.00;95608.94;5065683;28;20629;-81
2021/12/02 02:37:36;;;;;;;3.38;0.70;;;;;;;4.15;100.00;95611.63;5083871;28;20045;-81
2021/12/02 02:40:06;;;;;;;6.82;1.10;;;;;;;4.16;100.00;95610.50;5082972;28;20303;-81
2021/12/02 02:42:34;;;;;;;4.20;0.70;;;;;;;3.95;100.00;95574.09;5082780;28;20049;-83
2021/12/02 02:45:01;;;;;;;5.03;0.70;;;;;;;4.18;100.00;95607.50;5084460;28;20048;-80
2021/12/02 02:47:28;;;;;;;7.00;0.80;;;;;;;3.90;100.00;95569.69;5079328;28;20103;-80
2021/12/02 02:49:55;;;;;;;11.52;1.65;;;;;;;4.10;100.00;95619.03;5075486;28;20064;-81
2021/12/02 02:52:22;;;;;;;7.35;0.90;;;;;;;4.04;100.00;95615.75;5059634;28;20508;-83
2021/12/02 02:54:50;;;;;;;6.55;1.17;;;;;;;3.93;100.00;95614.53;5078615;28;20044;-82
2021/12/02 02:57:19;;;;;;;5.93;1.05;;;;;;;4.00;100.00;95614.06;5081749;28;20048;-82
2021/12/02 03:00:01;;;;;;;6.40;1.00;;;;;;;3.93;100.00;95603.84;5063523;28;20075;-82
2021/12/02 03:02:43;;;;;;;6.65;1.02;;;;;;;4.03;100.00;95624.88;5087210;28;20052;-82
2021/12/02 03:05:23;;;;;;;4.75;1.10;;;;;;;4.11;100.00;95625.94;5069708;28;20055;-82
2021/12/02 03:07:55;;;;;;;7.20;1.35;;;;;;;4.10;100.00;95637.78;5096009;28;20063;-80
2021/12/02 03:18:25;;;;;;;3.47;0.95;;;;;;;4.04;100.00;95636.38;5093307;28;20036;-82
2021/12/02 03:20:51;;;;;;;6.57;0.85;;;;;;;4.06;100.00;95623.47;5073809;28;20028;-83
2021/12/02 03:23:18;;;;;;;8.25;1.02;;;;;;;4.01;100.00;95629.00;5097069;28;20062;-82
2021/12/02 03:25:45;;;;;;;5.82;1.00;;;;;;;4.03;100.00;95630.25;5078528;28;20048;-83
2021/12/02 03:28:12;;;;;;;7.45;1.20;;;;;;;4.16;100.00;95647.19;5082476;28;20106;-81
2021/12/02 03:30:38;;;;;;;5.22;1.15;;;;;;;4.23;100.00;95655.53;5064243;28;20049;-83
2021/12/02 03:33:05;;;;;;;4.60;0.98;;;;;;;4.28;100.00;95663.38;5084885;28;20107;-81
2021/12/02 03:35:32;;;;;;;6.43;1.08;;;;;;;4.23;100.00;95642.13;5067201;28;20129;-83
2021/12/02 03:38:10;;;;;;;3.67;1.10;;;;;;;4.25;100.00;95667.47;5084190;28;20234;-82
2021/12/02 03:40:36;;;;;;;5.13;1.25;;;;;;;4.22;100.00;95656.63;5053726;22;20506;-80
2021/12/02 03:43:03;;;;;;;4.15;1.08;;;;;;;4.30;100.00;95674.53;5054365;28;20117;-80
2021/12/02 03:45:47;;;;;;;5.22;0.82;;;;;;;4.32;100.00;95673.09;5034673;28;20041;-78
2021/12/02 03:48:14;;;;;;;9.50;1.13;;;;;;;4.34;100.00;95673.56;5034857;28;20049;-80
2021/12/02 03:50:40;;;;;;;8.70;1.17;;;;;;;4.37;100.00;95674.81;5015676;28;20049;-78
2021/12/02 03:53:07;;;;;;;8.38;1.27;;;;;;;4.42;100.00;95677.31;5034579;28;20041;-79
2021/12/02 03:55:33;;;;;;;5.00;0.93;;;;;;;4.40;100.00;95685.69;5035121;28;20478;-78
2021/12/02 03:58:00;;;;;;;9.77;1.33;;;;;;;4.44;100.00;95680.44;5035315;28;20084;-80
2021/12/02 04:00:26;;;;;;;6.47;1.10;;;;;;;4.38;100.00;95687.09;5016652;28;20085;-78
2021/12/02 04:02:53;;;;;;;11.55;1.20;;;;;;;4.28;100.00;95671.41;5032723;28;20049;-78
2021/12/02 04:05:19;;;;;;;7.65;1.02;;;;;;;4.24;100.00;95681.19;5035315;28;20060;-78
2021/12/02 04:07:46;;;;;;;3.60;0.90;;;;;;;4.20;100.00;95688.28;5018144;28;20486;-80
2021/12/02 04:10:13;;;;;;;5.15;1.00;;;;;;;4.19;100.00;95684.81;5018873;28;20091;-79
2021/12/02 04:12:52;;;;;;;4.30;1.15;;;;;;;4.18;100.00;95693.19;5018407;28;20478;-79
2021/12/02 04:15:25;;;;;;;10.18;1.15;;;;;;;4.18;100.00;95693.94;5035183;28;20065;-81
2021/12/02 04:17:52;;;;;;;8.68;1.23;;;;;;;4.13;100.00;95688.78;5035296;28;20068;-77
2021/12/02 04:20:22;;;;;;;7.72;1.05;;;;;;;4.29;100.00;95703.22;5035170;28;20639;-79
2021/12/02 04:22:50;;;;;;;4.75;1.10;;;;;;;4.23;100.00;95703.72;5037298;28;20068;-80
2021/12/02 04:25:18;;;;;;;7.50;1.40;;;;;;;4.21;100.00;95706.69;5020805;28;20045;-79
2021/12/02 04:27:46;;;;;;;2.42;0.88;;;;;;;4.21;100.00;95711.25;5038900;28;20049;-79
2021/12/02 04:30:15;;;;;;;7.05;1.35;;;;;;;4.25;100.00;95714.88;5035653;28;20049;-81
2021/12/02 04:32:42;;;;;;;3.28;1.00;;;;;;;4.12;100.00;95723.91;5042130;28;20083;-85
2021/12/02 04:35:13;;;;;;;8.25;1.20;;;;;;;4.13;100.00;95720.91;5038677;28;20505;-79
2021/12/02 04:37:40;;;;;;;6.60;1.42;;;;;;;4.00;100.00;95719.22;5038175;28;20045;-76
2021/12/02 04:40:07;;;;;;;6.30;1.38;;;;;;;3.77;100.00;95715.19;5046173;28;20472;-78
2021/12/02 04:42:34;;;;;;;3.25;1.15;;;;;;;3.71;100.00;95722.59;5028748;28;20048;-79
2021/12/02 04:45:01;;;;;;;4.28;1.30;;;;;;;3.67;100.00;95712.84;5023877;28;20537;-77
2021/12/02 04:47:27;;;;;;;5.03;1.70;;;;;;;3.66;100.00;95720.09;5026939;28;20042;-80
2021/12/02 04:49:54;;;;;;;4.70;1.27;;;;;;;3.63;100.00;95726.06;5017675;28;20100;-81
2021/12/02 04:52:20;;;;;;;9.82;1.90;;;;;;;3.66;100.00;95728.13;5024041;28;20045;-78
2021/12/02 04:54:49;;;;;;;5.22;1.77;;;;;;;3.73;100.00;95730.31;5016635;28;20068;-78
2021/12/02 04:57:16;;;;;;;8.07;1.40;;;;;;;3.79;100.00;95727.13;5027799;28;20537;-80
2021/12/02 04:59:45;;;;;;;3.78;1.00;;;;;;;3.79;100.00;95737.84;5023830;28;20045;-79
2021/12/02 05:02:12;;;;;;;6.47;1.20;;;;;;;3.85;100.00;95746.47;5005990;28;20066;-79
2021/12/02 05:04:55;;;;;;;5.97;1.60;;;;;;;3.87;100.00;95738.94;5009602;28;20042;-79
2021/12/02 05:07:35;;;;;;;6.00;1.25;;;;;;;3.88;100.00;95737.81;4998967;28;20053;-78
2021/12/02 05:10:06;;;;;;;8.57;1.35;;;;;;;3.85;100.00;95743.81;5014931;28;20041;-79
2021/12/02 05:12:35;;;;;;;7.05;1.30;;;;;;;3.90;100.00;95737.53;5000501;28;20062;-77
2021/12/02 05:15:16;;;;;;;5.13;1.10;;;;;;;3.91;100.00;95742.56;5016906;28;20037;-79
2021/12/02 05:17:44;;;;;;;3.92;1.00;;;;;;;3.93;100.00;95745.69;5034694;28;20096;-81
2021/12/02 05:20:12;;;;;;;6.55;1.08;;;;;;;4.02;100.00;95751.03;5020151;28;20056;-79
2021/12/02 05:22:40;;;;;;;7.47;1.23;;;;;;;3.97;100.00;95743.97;5014580;28;20081;-79
2021/12/02 05:25:09;;;;;;;6.28;1.17;;;;;;;4.03;100.00;95741.88;5015506;28;20101;-79
2021/12/02 05:27:36;;;;;;;5.78;1.05;;;;;;;4.09;100.00;95744.06;4999282;28;20062;-82
2021/12/02 05:30:07;;;;;;;10.05;1.67;;;;;;;4.04;100.00;95740.78;5018945;28;20100;-78
2021/12/02 05:32:33;;;;;;;5.70;1.40;;;;;;;4.00;100.00;95740.63;4997605;28;20049;-79
2021/12/02 05:35:00;;;;;;;10.18;1.25;;;;;;;3.97;100.00;95752.00;5017767;28;20041;-78
2021/12/02 05:37:27;;;;;;;5.68;1.30;;;;;;;3.98;100.00;95755.44;5016682;28;20049;-82
2021/12/02 05:39:56;;;;;;;5.50;1.30;;;;;;;4.02;100.00;95759.06;5020350;28;20029;-80
2021/12/02 05:42:25;;;;;;;5.55;1.00;;;;;;;4.03;100.00;95757.94;5031608;28;20045;-81
2021/12/02 05:44:53;;;;;;;5.82;1.00;;;;;;;4.01;100.00;95763.63;5005347;28;20087;-78
2021/12/02 05:47:21;;;;;;;10.30;1.55;;;;;;;4.04;100.00;95757.63;5025460;28;20075;-78
2021/12/02 05:49:49;;;;;;;9.48;1.35;;;;;;;3.97;100.00;95751.19;5030953;28;20469;-78
2021/12/02 05:52:20;;;;;;;7.88;1.13;;;;;;;3.95;100.00;95743.47;5015066;28;20153;-80
2021/12/02 05:54:46;;;;;;;7.57;1.38;;;;;;;3.85;100.00;95745.69;5017775;28;20041;-78
2021/12/02 05:57:13;;;;;;;6.22;1.05;;;;;;;3.85;100.00;95756.41;5033336;28;20049;-79
2021/12/02 05:59:41;;;;;;;8.55;1.90;;;;;;;3.77;100.00;95771.38;5034073;28;20049;-78
2021/12/02 06:02:09;;;;;;;9.73;1.50;;;;;;;3.75;100.00;95771.69;5034399;28;20152;-78
2021/12/02 06:04:39;;;;;;;6.53;1.40;;;;;;;3.68;100.00;95773.28;5034759;28;20482;-78
2021/12/02 06:07:07;;;;;;;11.43;1.45;;;;;;;3.78;100.00;95781.78;5042957;28;20084;-83
2021/12/02 06:09:33;;;;;;;6.00;1.15;;;;;;;3.84;100.00;95779.72;5038554;28;20048;-78
2021/12/02 06:12:00;;;;;;;5.63;1.42;;;;;;;3.79;100.00;95788.69;5035748;28;20469;-78
2021/12/02 06:14:27;;;;;;;8.93;1.30;;;;;;;3.88;100.00;95774.50;5025044;28;20049;-81
2021/12/02 06:16:53;;;;;;;8.40;1.40;;;;;;;3.99;100.00;95786.47;5045203;28;20037;-79
2021/12/02 06:19:20;;;;;;;6.43;1.20;;;;;;;4.06;100.00;95778.72;5034322;28;20034;-79
2021/12/02 06:21:48;;;;;;;11.95;1.35;;;;;;;4.05;100.00;95790.56;5028633;28;20063;-79
2021/12/02 06:24:17;;;;;;;7.95;1.15;;;;;;;3.99;100.00;95794.50;5019957;28;20061;-79
2021/12/02 06:26:46;;;;;;;6.07;1.30;;;;;;;3.89;100.00;95784.13;5036834;28;20124;-80
2021/12/02 06:29:16;;;;;;;7.20;1.52;;;;;;;3.80;100.00;95786.78;5044097;28;20041;-79
2021/12/02 06:31:42;;;;;;;8.70;1.60;;;;;;;3.76;100.00;95786.66;5038031;28;20071;-80
2021/12/02 06:34:12;;;;;;;6.13;1.25;;;;;;;3.72;100.00;95795.59;5053137;22;20136;-79
2021/12/02 06:36:46;;;;;;;7.57;0.90;;;;;;;3.63;100.00;95786.81;5014971;28;20080;-79
2021/12/02 06:39:15;;;;;;;7.18;1.30;;;;;;;3.67;100.00;95795.78;5013772;28;20057;-78
2021/12/02 06:41:42;;;;;;;8.15;1.13;;;;;;;3.70;100.00;95800.50;5031073;28;20080;-78
2021/12/02 06:44:09;;;;;;;13.52;2.25;;;;;;;3.57;100.00;95807.59;5032084;28;20076;-79
2021/12/02 06:46:38;;;;;;;5.32;1.15;;;;;;;3.56;100.00;95794.53;5030776;28;20080;-77
2021/12/02 06:49:04;;;;;;;5.03;1.00;;;;;;;3.59;100.00;95818.75;5047233;28;20119;-79
2021/12/02 06:51:31;;;;;;;7.22;1.17;;;;;;;3.61;100.00;95803.16;5032102;28;20049;-79
2021/12/02 06:53:59;;;;;;;4.53;1.02;;;;;;;3.52;100.00;95805.06;5047975;28;20103;-78
2021/12/02 06:56:45;;;;;;;9.05;1.40;;;;;;;3.56;100.00;95811.34;5016854;28;20049;-79
2021/12/02 06:59:11;;;;;;;5.85;1.33;;;;;;;3.57;100.00;95806.78;5031367;28;20053;-79
2021/12/02 07:01:38;;;;;;;4.97;1.30;;;;;;;3.54;100.00;95813.56;5013537;28;20049;-78
2021/12/02 07:04:05;;;;;;;5.85;1.20;;;;;;;3.57;100.00;95807.59;5038760;28;20080;-79
2021/12/02 07:06:37;;;;;;;7.25;1.45;;;;;;;3.51;100.00;95808.06;5004107;28;20465;-79
2021/12/02 07:09:08;;;;;;;6.05;1.50;;;;;;;3.54;100.00;95818.13;5035368;28;20075;-81
2021/12/02 07:11:38;;;;;;;8.10;1.30;;;;;;;3.47;100.00;95815.13;5034468;28;20045;-79
2021/12/02 07:14:08;;;;;;;9.77;1.55;;;;;;;3.53;100.00;95821.91;5016245;28;20560;-81
2021/12/02 07:20:29;;;;;;;8.98;1.30;;;;;;;3.28;100.00;95814.66;5018202;28;20053;-80
2021/12/02 07:26:18;;;;;;;8.68;1.52;;;;;;;3.34;100.00;95824.06;5026177;28;20054;-81
2021/12/02 07:28:57;;;;;;;9.88;2.53;;;;;;;3.34;100.00;95851.59;5020205;28;20048;-80
2021/12/02 07:31:27;;;;;;;;;;;;;;;3.38;100.00;95852.53;5026442;28;20131;-80
2021/12/02 07:34:02;;;;;;;12.70;2.70;;;;;;;3.17;100.00;95828.28;5006317;28;19925;-79
2021/12/02 07:36:33;;;;;;;5.87;2.20;;;;;;;3.46;100.00;95854.44;5024696;28;20037;-80
2021/12/02 07:39:06;;;;;;;13.18;1.90;;;;;;;3.35;100.00;95831.81;5007184;28;20300;-80
2021/12/02 07:41:42;;;;;;;6.40;1.70;;;;;;;3.41;100.00;95851.94;5010354;28;20038;-79
2021/12/02 07:44:11;;;;;;;11.48;2.05;;;;;;;3.60;100.00;95862.34;5027211;28;20136;-79
2021/12/02 07:46:41;;;;;;;11.23;1.52;;;;;;;3.58;100.00;95860.00;5010690;28;20045;-79
2021/12/02 07:49:24;;;;;;;7.50;1.60;;;;;;;3.49;100.00;95848.47;5013976;28;20065;-81
2021/12/02 07:52:00;;;;;;;5.75;1.52;;;;;;;3.68;100.00;95854.34;5014054;28;20470;-80
2021/12/02 07:54:33;;;;;;;8.75;1.55;;;;;;;3.63;100.00;95848.34;5030476;28;20053;-80
2021/12/02 07:58:03;;;;;;;8.30;1.60;;;;;;;3.83;100.00;95890.53;5010662;28;20045;-84
2021/12/02 08:00:51;;;;;;;7.47;1.52;;;;;;;3.67;100.00;95850.06;5016950;28;20584;-81
2021/12/02 08:03:44;;;;;;;8.05;1.63;;;;;;;3.91;100.00;95878.25;5024254;28;20049;-80
2021/12/02 08:06:18;;;;;;;5.15;1.80;;;;;;;4.13;100.00;95884.22;5030167;28;20046;-78
2021/12/02 08:08:50;;;;;;;6.47;2.13;;;;;;;4.09;100.00;95864.56;5014210;28;20204;-80
2021/12/02 08:11:36;;;;;;;11.98;2.13;;;;;;;4.43;100.00;95897.75;5029930;28;20430;-82
2021/12/02 08:14:39;;;;;;;9.30;2.65;;;;;;;4.68;100.00;95884.28;4998373;28;20104;-80
2021/12/02 08:17:29;;;;;;;11.52;2.95;;;;;;;5.18;100.00;95905.88;5006358;28;20450;-77
2021/12/02 08:20:06;;;;;;;7.97;1.90;;;;;;;5.57;100.00;95907.44;5015352;28;20038;-77
2021/12/02 08:22:43;;;;;;;11.65;2.20;;;;;;;6.03;100.00;95899.25;5039677;28;20046;-80
2021/12/02 08:25:25;;;;;;;10.13;2.15;;;;;;;5.99;100.00;95890.25;5008756;28;20066;-80
2021/12/02 08:31:07;;;;;;;5.85;1.58;;;;;;;5.80;100.00;95908.69;5020486;28;20046;-79
2021/12/02 08:34:10;;;;;;;6.88;1.95;;;;;;;5.47;100.00;95913.94;5007711;28;20157;-79
2021/12/02 08:36:46;;;;;;;6.30;1.63;;;;;;;5.68;100.00;95923.94;5011557;28;20544;-80
2021/12/02 08:39:34;;;;;;;6.25;1.52;;;;;;;5.99;100.00;95916.31;5022324;28;20065;-81
2021/12/02 08:42:10;;;;;;;6.72;1.77;;;;;;;5.90;100.00;95900.28;5019080;28;20394;-81
2021/12/02 08:44:52;;;;;;;5.60;1.70;;;;;;;6.15;100.00;95926.16;5019993;28;20056;-78
2021/12/02 08:47:27;;;;;;;3.92;1.30;;;;;;;6.95;100.00;95915.13;5035805;28;20137;-81
2021/12/02 08:50:15;;;;;;;7.45;1.60;;;;;;;6.72;100.00;95925.50;5019795;28;20041;-80
2021/12/02 08:52:54;;;;;;;5.50;1.30;;;;;;;6.00;100.00;95921.38;5039006;28;20049;-81
2021/12/02 08:55:29;;;;;;;7.07;1.85;;;;;;;6.38;100.00;95912.38;5020087;28;20088;-81
2021/12/02 08:58:04;;;;;;;6.30;1.58;;;;;;;6.35;100.00;95903.06;5037672;28;20045;-81
2021/12/02 09:00:41;;;;;;;8.00;1.58;;;;;;;6.27;100.00;95907.41;5036385;28;20076;-80
2021/12/02 09:03:12;;;;;;;5.03;1.40;;;;;;;6.56;100.00;95913.78;5037156;28;20068;-78
2021/12/02 09:05:39;;;;;;;7.68;1.60;;;;;;;7.01;100.00;95922.66;5020604;28;20050;-79
2021/12/02 09:08:06;;;;;;;9.80;1.48;;;;;;;7.70;100.00;95936.06;5036622;28;20057;-80
2021/12/02 09:10:34;;;;;;;6.40;1.30;;;;;;;7.17;100.00;95949.72;5041215;28;20042;-80
2021/12/02 09:13:08;;;;;;;4.57;1.10;;;;;;;7.26;100.00;95948.50;5033998;28;20033;-77
2021/12/02 09:15:38;;;;;;;6.30;1.27;;;;;;;6.81;100.00;95966.56;5047460;28;20033;-76
2021/12/02 09:18:10;;;;;;;5.45;1.23;;;;;;;7.04;100.00;95961.56;5051739;28;20060;-80
2021/12/02 09:20:43;;;;;;;8.80;1.15;;;;;;;6.97;100.00;95935.19;5048818;28;20405;-79
2021/12/02 09:23:15;;;;;;;9.35;1.33;;;;;;;6.20;100.00;95943.97;5017571;28;20068;-79
2021/12/02 09:25:51;;;;;;;7.28;1.40;;;;;;;5.56;100.00;95946.88;5018234;28;20077;-82
2021/12/02 09:28:38;;;;;;;11.10;1.42;;;;;;;5.16;100.00;95955.59;5034888;28;20083;-81
2021/12/02 09:31:10;;;;;;;6.47;1.60;;;;;;;5.62;100.00;95967.06;5019563;28;20057;-81
2021/12/02 09:33:39;;;;;;;6.85;1.67;;;;;;;5.96;100.00;95966.09;5037083;28;20111;-83
2021/12/02 09:40:14;;;;;;;10.07;1.13;;;;;;;6.37;100.00;95954.59;4967288;28;20138;-80
2021/12/02 09:43:11;;;;;;;12.48;1.50;;;;;;;6.20;100.00;95955.50;5019079;28;20049;-79
2021/12/02 09:45:52;;;;;;;12.90;2.20;;;;;;;6.34;100.00;95957.94;5024990;28;20568;-80
2021/12/02 09:48:22;;;;;;;7.68;1.92;;;;;;;6.34;100.00;95949.09;5043996;28;20048;-80
2021/12/02 09:51:17;;;;;;;10.57;2.13;;;;;;;6.40;100.00;95953.94;5036894;28;20049;-80
2021/12/02 09:54:08;;;;;;;6.57;1.67;;;;;;;6.11;100.00;95956.69;5041192;28;20049;-80
2021/12/02 09:56:37;;;;;;;5.25;1.10;;;;;;;5.71;100.00;95971.59;5052544;28;20111;-80
2021/12/02 09:59:10;;;;;;;6.88;1.27;;;;;;;5.47;100.00;95975.66;5017544;28;20057;-83
2021/12/02 10:01:48;;;;;;;7.97;1.45;;;;;;;5.34;100.00;95975.88;5018021;28;20414;-81
2021/12/02 10:04:16;;;;;;;10.75;1.60;;;;;;;5.27;100.00;95968.31;5013116;28;20476;-79
2021/12/02 10:06:43;;;;;;;13.18;1.67;;;;;;;5.19;100.00;95969.13;5016114;28;20052;-81
2021/12/02 10:09:21;;;;;;;6.78;1.30;;;;;;;5.08;100.00;95959.88;5034308;28;20056;-79
2021/12/02 10:12:13;;;;;;;;;;;;;;;5.20;100.00;95968.03;5021091;28;20050;-81
2021/12/02 10:14:44;;;;;;;4.93;1.70;;;;;;;4.92;100.00;95958.81;5015202;28;20410;-78
2021/12/02 10:17:38;;;;;;;12.70;1.70;;;;;;;4.90;100.00;95959.13;4997182;28;20096;-81
2021/12/02 10:20:30;;;;;;;12.45;1.45;;;;;;;4.82;100.00;95932.34;4998772;28;20045;-78
2021/12/02 10:23:30;;;;;;;11.30;1.67;;;;;;;5.23;100.00;95970.06;4998161;28;20046;-79
2021/12/02 10:26:03;;;;;;;11.05;1.63;;;;;;;5.15;100.00;95967.41;5003834;28;20107;-80
2021/12/02 10:28:40;;;;;;;5.00;1.23;;;;;;;5.18;100.00;95956.84;5036073;28;20087;-79
2021/12/02 10:31:11;;;;;;;9.15;1.60;;;;;;;5.32;100.00;95953.94;5045036;28;20068;-80
2021/12/02 10:33:53;;;;;;;12.05;1.25;;;;;;;5.57;100.00;95969.91;5051396;28;20045;-80
2021/12/02 10:36:25;;;;;;;7.55;1.58;;;;;;;5.87;100.00;95954.63;5035330;28;20057;-79
2021/12/02 10:38:57;;;;;;;10.35;1.33;;;;;;;5.50;100.00;95958.13;5035961;28;20053;-77
2021/12/02 10:41:29;;;;;;;5.82;1.20;;;;;;;5.44;100.00;95954.84;5036093;28;20049;-80
2021/12/02 10:44:01;;;;;;;;;;;;;;;5.56;100.00;95951.47;5033865;28;20057;-80
2021/12/02 10:46:36;;;;;;;8.13;1.13;;;;;;;5.42;100.00;95953.59;5032838;28;20332;-81
2021/12/02 10:49:13;;;;;;;11.18;1.33;;;;;;;5.30;100.00;95934.69;5033538;28;20056;-80
2021/12/02 10:51:46;;;;;;;9.60;1.88;;;;;;;5.24;100.00;95936.75;5016582;28;20115;-80
2021/12/02 10:54:16;;;;;;;10.00;1.45;;;;;;;5.53;100.00;95950.22;5015692;28;20103;-81
2021/12/02 10:57:08;;;;;;;10.98;1.75;;;;;;;5.51;100.00;95951.66;5033495;28;20115;-80
2021/12/02 11:00:02;;;;;;;13.57;1.88;;;;;;;5.84;100.00;95947.19;5033690;28;20046;-80
2021/12/02 11:02:38;;;;;;;11.15;1.80;;;;;;;6.04;100.00;95954.50;5043140;28;20115;-80
2021/12/02 11:05:34;;;;;;;9.93;1.77;;;;;;;5.51;100.00;95949.75;5047197;28;20514;-80
2021/12/02 11:08:10;;;;;;;15.40;1.92;;;;;;;5.86;100.00;95963.78;5036041;28;20045;-79
2021/12/02 11:10:48;;;;;;;7.40;1.42;;;;;;;5.82;100.00;95965.53;5024996;28;20081;-80
2021/12/02 11:13:20;;;;;;;16.58;1.80;;;;;;;5.82;100.00;95970.13;5038768;28;20049;-81
2021/12/02 11:15:49;;;;;;;15.82;1.75;;;;;;;5.41;100.00;95958.16;5039757;28;20053;-79
2021/12/02 11:18:21;;;;;;;9.13;1.60;;;;;;;5.21;100.00;95956.22;5022164;28;20517;-80
2021/12/02 11:20:59;;;;;;;6.80;1.10;;;;;;;5.32;100.00;95965.44;5021714;28;20076;-79
2021/12/02 11:23:45;;;;;;;14.48;1.30;;;;;;;5.72;100.00;95954.38;5030347;28;20045;-81
2021/12/02 11:26:18;;;;;;;8.13;1.20;;;;;;;5.79;100.00;95944.69;5036720;28;20560;-79
2021/12/02 11:28:51;;;;;;;13.30;1.40;;;;;;;5.93;100.00;95941.81;5016458;28;20526;-80
2021/12/02 11:31:21;;;;;;;14.48;2.30;;;;;;;6.38;100.00;95956.16;5025546;28;20054;-79
2021/12/02 11:33:56;;;;;;;8.27;1.42;;;;;;;7.99;100.00;95949.28;5004632;28;20084;-79
2021/12/02 11:36:28;;;;;;;8.00;1.50;;;;;;;9.34;94.38;95937.66;5017800;28;20410;-79
2021/12/02 11:38:59;;;;;;;12.98;1.35;;;;;;;9.08;89.09;95951.63;5018096;28;20045;-80
2021/12/02 11:41:31;;;;;;;10.00;1.30;;;;;;;8.48;88.86;95952.69;5035578;28;20042;-81
2021/12/02 11:44:02;;;;;;;7.50;1.40;;;;;;;8.17;95.03;95957.91;5035568;28;20053;-80
2021/12/02 11:46:32;;;;;;;11.60;1.92;;;;;;;7.18;100.00;95949.38;5035704;28;20037;-79
2021/12/02 11:49:02;;;;;;;7.97;1.30;;;;;;;6.53;100.00;95955.56;5035300;28;20117;-80
2021/12/02 11:51:37;;;;;;;9.50;1.52;;;;;;;6.35;100.00;95946.06;5020030;28;20072;-79
2021/12/02 11:54:11;;;;;;;11.15;1.30;;;;;;;6.22;100.00;95931.00;5021415;28;20138;-80
2021/12/02 11:56:42;;;;;;;10.07;1.58;;;;;;;5.97;100.00;95945.41;5054012;28;20064;-81
2021/12/02 11:59:17;;;;;;;8.48;1.23;;;;;;;5.79;100.00;95938.53;5040108;28;20049;-80
2021/12/02 12:01:59;;;;;;;7.03;1.45;;;;;;;5.72;100.00;95932.91;5058361;28;20068;-81
2021/12/02 12:04:28;;;;;;;10.98;1.55;;;;;;;5.44;100.00;95940.66;5050481;28;20413;-80
2021/12/02 12:07:13;;;;;;;9.77;1.30;;;;;;;5.60;100.00;95953.16;5028556;28;20104;-80
2021/12/02 12:10:09;;;;;;;8.63;1.20;;;;;;;5.63;100.00;95965.16;5051301;28;20148;-81
2021/12/02 12:12:42;;;;;;;11.63;1.40;;;;;;;5.63;100.00;95955.22;5056575;28;20452;-79
2021/12/02 12:15:32;;;;;;;7.40;1.55;;;;;;;5.12;100.00;95973.41;5043146;28;20061;-81
2021/12/02 12:18:42;;;;;;;5.72;0.90;;;;;;;4.87;100.00;95991.94;5023701;28;20494;-80
2021/12/02 12:21:19;;;;;;;11.93;1.70;;;;;;;4.17;100.00;95967.41;5039307;28;20061;-80
2021/12/02 12:24:00;;;;;;;8.18;1.63;;;;;;;3.74;100.00;95967.34;5017356;28;20068;-81
2021/12/02 12:26:56;;;;;;;8.32;1.50;;;;;;;3.78;100.00;95987.81;5037329;28;20038;-82
2021/12/02 12:30:24;;;;;;;;;;;;;;;;;;;;;